Monroe, NC

5:03 PM EDT en Abril 19, 2015 (GMT -0400)
Scotts House @ Bent Creek | | Change Station
CLOSE
Current Station
Estación meteorológica personal
Location: Indian Trail, NC
Altura: 715 ft
Estaciones meteorológicas cercanas
Aviso en curso: Tornado Watch

Alt 715 ft 35.10 °N, 80.62 °W | Updated 14 minutes ago

Nublado
Nublado
68.0 ° F
Sensación térmica 68.0 ° F
N
1.7
Viento Variable Viento desde NNE

Hoy
Alta -- | Baja -- ° F
--% Posibilidad de precipitaciones
Ayer
Alta -- | Baja -- ° F
Precip. -- pul
6:45 AM 7:58 PM
Luna nueva, 2% visible
Presión 29.81 pul
Visibilidad 10.0 Millas
Nubes Muy nublado 700 ft
Nublado 1300 ft
Punto de rocío 67 ° F
Humedad 97%
Precipitaciones 0.65 pul
Espesor de la nieve No disponible.
UV 1 de una escala de 12
Polen 1.10 de una escala de 12
Calidad del aire No disponible.
Flu Activity Sporadic
METAR KEQY 192053Z AUTO VRB03KT 10SM BKN007 OVC013 21/19 A2980 RMK AO2 RAE34 CIG 006V011 SLP095 P0002 60002 T02060189 58028

More Conditions Fewer Conditions

Presión 29.81 pul
Visibilidad 10.0 Millas
Nubes Muy nublado 700 ft
Nublado 1300 ft
Punto de rocío 67 ° F
Humedad 97%
Precipitaciones 0.65 pul
Espesor de la nieve No disponible.
UV 1 de una escala de 12
Polen 1.10 de una escala de 12
Calidad del aire No disponible.
Flu Activity Sporadic
METAR KEQY 192053Z AUTO VRB03KT 10SM BKN007 OVC013 21/19 A2980 RMK AO2 RAE34 CIG 006V011 SLP095 P0002 60002 T02060189 58028

More Conditions Fewer Conditions

10-Day Weather Forecast

Almanac

Astronomía

Apr. 19, 2015 Salida Puesta
Hora real
Crepúsculo civil
Crepúsculo náutico
Crepúsculo astronómico
Luna
Horas de luz
Horas de luz
Tomorrow will be .
, % of the Moon is Illuminated

Extremos de hoy

Máximos del estado Bajos del estado

Community

WunderPhotos

Upload Photos

1,814,980 ¡fotos cargadas!

WunderBlogs® & News

Nearby

Calidad del aire

  Calidad del aire Índice AQ Contaminante
Not available.

Grosos de nieve

Estación Profundido Altura

Actividad de terremotos

Ciudad Distance Mag. Tiempo y dato
Magnitud mínima muestra es 2,5.

Temperaturas de aguas costeras

Lugar Temperatura

Stations

Estaciones meteorológicas cercanas

Ubicación de la estación Temp. Vientos helados Punto de rocío Humedad Viento Precip. Alt Actualizado Tipo
                   
Tornado Watch
Statement as of 4:57 PM EDT en Abril 19, 2015

Tornado Watch 79 remains in effect until 800 PM EDT for the
following locations

NC
. North Carolina counties included are

Cabarrus Gaston Mecklenburg
Union